sensor_id;sensor_type;location;lat;lon;timestamp;pressure;altitude;pressure_sealevel;temperature;humidity
50057;BME280;36875;49.468;11.200;2022-10-22T00:01:16;97605.28;;;21.25;52.10
50057;BME280;36875;49.468;11.200;2022-10-22T00:03:43;97615.84;;;21.44;51.44
50057;BME280;36875;49.468;11.200;2022-10-22T00:06:08;97620.72;;;21.29;51.90
50057;BME280;36875;49.468;11.200;2022-10-22T00:08:34;97610.78;;;21.16;52.12
50057;BME280;36875;49.468;11.200;2022-10-22T00:11:07;97608.97;;;21.20;52.12
50057;BME280;36875;49.468;11.200;2022-10-22T00:13:32;97616.56;;;21.14;52.10
50057;BME280;36875;49.468;11.200;2022-10-22T00:15:58;97621.88;;;21.11;52.24
50057;BME280;36875;49.468;11.200;2022-10-22T00:18:23;97628.00;;;21.08;52.35
50057;BME280;36875;49.468;11.200;2022-10-22T00:20:50;97623.19;;;21.05;52.30
50057;BME280;36875;49.468;11.200;2022-10-22T00:23:15;97619.97;;;21.03;52.37
50057;BME280;36875;49.468;11.200;2022-10-22T00:25:41;97614.69;;;20.97;52.33
50057;BME280;36875;49.468;11.200;2022-10-22T00:28:06;97624.78;;;20.97;52.41
50057;BME280;36875;49.468;11.200;2022-10-22T00:30:32;97631.41;;;20.96;52.45
50057;BME280;36875;49.468;11.200;2022-10-22T00:32:57;97631.09;;;20.97;52.34
50057;BME280;36875;49.468;11.200;2022-10-22T00:35:23;97632.84;;;20.93;52.74
50057;BME280;36875;49.468;11.200;2022-10-22T00:37:50;97640.56;;;20.91;52.62
50057;BME280;36875;49.468;11.200;2022-10-22T00:40:15;97631.88;;;20.89;52.70
50057;BME280;36875;49.468;11.200;2022-10-22T00:42:41;97638.03;;;20.86;52.77
50057;BME280;36875;49.468;11.200;2022-10-22T00:45:15;97634.31;;;20.82;52.81
50057;BME280;36875;49.468;11.200;2022-10-22T00:47:43;97634.63;;;20.80;52.67
50057;BME280;36875;49.468;11.200;2022-10-22T00:50:12;97638.97;;;20.82;52.69
50057;BME280;36875;49.468;11.200;2022-10-22T00:52:39;97639.63;;;20.78;52.94
50057;BME280;36875;49.468;11.200;2022-10-22T00:55:06;97645.09;;;20.78;52.63
50057;BME280;36875;49.468;11.200;2022-10-22T00:57:32;97651.38;;;20.79;52.52
50057;BME280;36875;49.468;11.200;2022-10-22T00:59:59;97651.69;;;20.77;52.76
50057;BME280;36875;49.468;11.200;2022-10-22T01:02:25;97649.91;;;20.73;52.91
50057;BME280;36875;49.468;11.200;2022-10-22T01:04:50;97651.06;;;20.72;52.62
50057;BME280;36875;49.468;11.200;2022-10-22T01:07:18;97640.13;;;20.63;53.23
50057;BME280;36875;49.468;11.200;2022-10-22T01:09:51;97643.50;;;20.69;52.89
50057;BME280;36875;49.468;11.200;2022-10-22T01:12:27;97644.13;;;20.66;52.93
50057;BME280;36875;49.468;11.200;2022-10-22T01:15:06;97643.00;;;20.67;52.84
50057;BME280;36875;49.468;11.200;2022-10-22T01:17:40;97646.38;;;20.64;52.81
50057;BME280;36875;49.468;11.200;2022-10-22T01:20:16;97633.50;;;20.55;52.87
50057;BME280;36875;49.468;11.200;2022-10-22T01:22:53;97632.84;;;20.58;53.08
50057;BME280;36875;49.468;11.200;2022-10-22T01:25:27;97638.50;;;20.62;52.97
50057;BME280;36875;49.468;11.200;2022-10-22T01:28:04;97633.84;;;20.63;52.93
50057;BME280;36875;49.468;11.200;2022-10-22T01:30:35;97635.56;;;20.58;52.66
50057;BME280;36875;49.468;11.200;2022-10-22T01:33:05;97628.81;;;20.56;52.96
50057;BME280;36875;49.468;11.200;2022-10-22T01:35:33;97628.81;;;20.56;52.88
50057;BME280;36875;49.468;11.200;2022-10-22T01:38:03;97630.75;;;20.55;53.02
50057;BME280;36875;49.468;11.200;2022-10-22T01:40:31;97624.50;;;20.55;52.91
50057;BME280;36875;49.468;11.200;2022-10-22T01:42:58;97622.09;;;20.53;52.62
50057;BME280;36875;49.468;11.200;2022-10-22T01:45:25;97614.69;;;20.54;52.96
50057;BME280;36875;49.468;11.200;2022-10-22T01:47:56;97616.94;;;20.52;52.95
50057;BME280;36875;49.468;11.200;2022-10-22T01:50:39;97613.72;;;20.50;52.81
50057;BME280;36875;49.468;11.200;2022-10-22T01:53:18;97615.16;;;20.47;53.02
50057;BME280;36875;49.468;11.200;2022-10-22T01:55:56;97618.34;;;20.49;52.87
50057;BME280;36875;49.468;11.200;2022-10-22T01:58:33;97607.44;;;20.49;52.89
50057;BME280;36875;49.468;11.200;2022-10-22T02:01:04;97596.34;;;20.46;52.58
50057;BME280;36875;49.468;11.200;2022-10-22T02:03:35;97582.03;;;20.40;52.71
50057;BME280;36875;49.468;11.200;2022-10-22T02:06:05;97586.22;;;20.46;52.91
50057;BME280;36875;49.468;11.200;2022-10-22T02:08:34;97590.38;;;20.44;52.90
50057;BME280;36875;49.468;11.200;2022-10-22T02:11:01;97591.22;;;20.44;52.90
50057;BME280;36875;49.468;11.200;2022-10-22T02:13:29;97585.09;;;20.38;53.18
50057;BME280;36875;49.468;11.200;2022-10-22T02:15:56;97593.47;;;20.42;53.17
50057;BME280;36875;49.468;11.200;2022-10-22T02:18:27;97578.03;;;20.37;53.29
50057;BME280;36875;49.468;11.200;2022-10-22T02:20:55;97587.00;;;20.38;52.96
50057;BME280;36875;49.468;11.200;2022-10-22T02:23:22;97596.03;;;20.38;52.90
50057;BME280;36875;49.468;11.200;2022-10-22T02:25:53;97597.63;;;20.39;52.96
50057;BME280;36875;49.468;11.200;2022-10-22T02:28:28;97599.88;;;20.37;52.73
50057;BME280;36875;49.468;11.200;2022-10-22T02:31:00;97601.00;;;20.36;52.85
50057;BME280;36875;49.468;11.200;2022-10-22T02:33:31;97604.22;;;20.30;53.01
50057;BME280;36875;49.468;11.200;2022-10-22T02:36:01;97606.97;;;20.30;53.12
50057;BME280;36875;49.468;11.200;2022-10-22T02:38:28;97612.09;;;20.31;53.02
50057;BME280;36875;49.468;11.200;2022-10-22T02:40:55;97621.41;;;20.30;52.98
50057;BME280;36875;49.468;11.200;2022-10-22T02:43:23;97619.81;;;20.29;52.96
50057;BME280;36875;49.468;11.200;2022-10-22T02:45:48;97613.53;;;20.29;52.96
50057;BME280;36875;49.468;11.200;2022-10-22T02:48:14;97628.34;;;20.28;53.33
50057;BME280;36875;49.468;11.200;2022-10-22T02:50:40;97632.19;;;20.27;53.26
50057;BME280;36875;49.468;11.200;2022-10-22T02:53:07;97628.00;;;20.20;52.94
50057;BME280;36875;49.468;11.200;2022-10-22T02:55:32;97632.81;;;20.23;53.08
50057;BME280;36875;49.468;11.200;2022-10-22T02:57:58;97630.41;;;20.22;53.00
50057;BME280;36875;49.468;11.200;2022-10-22T03:00:23;97619.16;;;20.23;53.11
50057;BME280;36875;49.468;11.200;2022-10-22T03:02:49;97620.28;;;20.22;53.13
50057;BME280;36875;49.468;11.200;2022-10-22T03:05:14;97607.91;;;20.16;53.29
50057;BME280;36875;49.468;11.200;2022-10-22T03:07:40;97611.13;;;20.18;53.28
50057;BME280;36875;49.468;11.200;2022-10-22T03:10:08;97611.13;;;20.18;53.18
50057;BME280;36875;49.468;11.200;2022-10-22T03:12:33;97597.44;;;20.10;53.46
50057;BME280;36875;49.468;11.200;2022-10-22T03:14:59;97602.75;;;20.15;53.22
50057;BME280;36875;49.468;11.200;2022-10-22T03:17:24;97607.41;;;20.14;53.43
50057;BME280;36875;49.468;11.200;2022-10-22T03:19:50;97618.69;;;20.13;53.27
50057;BME280;36875;49.468;11.200;2022-10-22T03:22:18;97626.88;;;20.13;53.60
50057;BME280;36875;49.468;11.200;2022-10-22T03:24:48;97623.00;;;20.14;53.36
50057;BME280;36875;49.468;11.200;2022-10-22T03:27:17;97616.75;;;20.13;53.29
50057;BME280;36875;49.468;11.200;2022-10-22T03:29:44;97610.31;;;20.09;53.32
50057;BME280;36875;49.468;11.200;2022-10-22T03:32:11;97609.16;;;20.10;53.50
50057;BME280;36875;49.468;11.200;2022-10-22T03:34:37;97597.13;;;20.02;53.38
50057;BME280;36875;49.468;11.200;2022-10-22T03:37:02;97609.97;;;20.02;53.43
50057;BME280;36875;49.468;11.200;2022-10-22T03:39:28;97613.19;;;20.04;53.20
50057;BME280;36875;49.468;11.200;2022-10-22T03:41:56;97597.56;;;19.96;53.32
50057;BME280;36875;49.468;11.200;2022-10-22T03:44:23;97625.41;;;19.98;53.64
50057;BME280;36875;49.468;11.200;2022-10-22T03:46:50;97653.03;;;20.05;53.57
50057;BME280;36875;49.468;11.200;2022-10-22T03:49:15;97649.50;;;20.05;53.63
50057;BME280;36875;49.468;11.200;2022-10-22T03:51:41;97658.00;;;20.03;53.52
50057;BME280;36875;49.468;11.200;2022-10-22T03:54:06;97666.19;;;20.03;53.56
50057;BME280;36875;49.468;11.200;2022-10-22T03:56:32;97684.22;;;20.04;53.58
50057;BME280;36875;49.468;11.200;2022-10-22T03:58:59;97684.03;;;20.00;53.41
50057;BME280;36875;49.468;11.200;2022-10-22T04:01:28;97693.03;;;20.01;53.61
50057;BME280;36875;49.468;11.200;2022-10-22T04:03:54;97680.97;;;19.93;53.50
50057;BME280;36875;49.468;11.200;2022-10-22T04:06:19;97692.06;;;19.97;53.76
50057;BME280;36875;49.468;11.200;2022-10-22T04:08:45;97686.91;;;19.95;53.54
50057;BME280;36875;49.468;11.200;2022-10-22T04:11:11;97691.56;;;19.95;53.64
50057;BME280;36875;49.468;11.200;2022-10-22T04:13:37;97697.53;;;19.97;53.60
50057;BME280;36875;49.468;11.200;2022-10-22T04:16:07;97696.84;;;19.91;53.58
50057;BME280;36875;49.468;11.200;2022-10-22T04:18:34;97709.06;;;19.94;53.49
50057;BME280;36875;49.468;11.200;2022-10-22T04:21:00;97719.00;;;19.90;53.61
50057;BME280;36875;49.468;11.200;2022-10-22T04:23:25;97721.13;;;19.93;53.50
50057;BME280;36875;49.468;11.200;2022-10-22T04:25:56;97730.44;;;19.92;53.78
50057;BME280;36875;49.468;11.200;2022-10-22T04:28:22;97733.16;;;19.92;53.69
50057;BME280;36875;49.468;11.200;2022-10-22T04:30:47;97721.44;;;19.91;53.80
50057;BME280;36875;49.468;11.200;2022-10-22T04:33:13;97713.06;;;19.88;53.83
50057;BME280;36875;49.468;11.200;2022-10-22T04:35:40;97719.31;;;19.88;53.58
50057;BME280;36875;49.468;11.200;2022-10-22T04:38:05;97729.44;;;19.88;53.71
50057;BME280;36875;49.468;11.200;2022-10-22T04:40:31;97725.94;;;19.87;53.50
50057;BME280;36875;49.468;11.200;2022-10-22T04:42:56;97729.59;;;19.82;53.88
50057;BME280;36875;49.468;11.200;2022-10-22T04:45:22;97724.25;;;19.77;53.77
50057;BME280;36875;49.468;11.200;2022-10-22T04:47:47;97728.13;;;19.76;53.91
50057;BME280;36875;49.468;11.200;2022-10-22T04:50:13;97739.41;;;19.83;53.88
50057;BME280;36875;49.468;11.200;2022-10-22T04:52:39;97742.13;;;19.83;53.87
50057;BME280;36875;49.468;11.200;2022-10-22T04:55:05;97753.34;;;19.82;53.88
50057;BME280;36875;49.468;11.200;2022-10-22T04:57:31;97752.22;;;19.83;53.84
50057;BME280;36875;49.468;11.200;2022-10-22T04:59:57;97754.16;;;19.82;53.63
50057;BME280;36875;49.468;11.200;2022-10-22T05:02:22;97755.41;;;19.76;53.92
50057;BME280;36875;49.468;11.200;2022-10-22T05:04:48;97755.91;;;19.78;53.94
50057;BME280;36875;49.468;11.200;2022-10-22T05:07:13;97758.63;;;19.78;53.94
50057;BME280;36875;49.468;11.200;2022-10-22T05:09:40;97754.28;;;19.77;53.75
50057;BME280;36875;49.468;11.200;2022-10-22T05:12:06;97749.97;;;19.76;53.71
50057;BME280;36875;49.468;11.200;2022-10-22T05:14:31;97749.16;;;19.76;53.88
50057;BME280;36875;49.468;11.200;2022-10-22T05:16:58;97748.34;;;19.75;53.77
50057;BME280;36875;49.468;11.200;2022-10-22T05:19:25;97750.28;;;19.75;53.84
50057;BME280;36875;49.468;11.200;2022-10-22T05:21:51;97743.50;;;19.72;53.82
50057;BME280;36875;49.468;11.200;2022-10-22T05:24:17;97747.06;;;19.73;53.80
50057;BME280;36875;49.468;11.200;2022-10-22T05:26:44;97756.03;;;19.73;53.73
50057;BME280;36875;49.468;11.200;2022-10-22T05:29:09;97746.34;;;19.67;54.10
50057;BME280;36875;49.468;11.200;2022-10-22T05:31:35;97751.16;;;19.70;53.70
50057;BME280;36875;49.468;11.200;2022-10-22T05:34:00;97753.88;;;19.70;54.07
50057;BME280;36875;49.468;11.200;2022-10-22T05:36:26;97745.22;;;19.68;54.01
50057;BME280;36875;49.468;11.200;2022-10-22T05:38:52;97751.50;;;19.69;53.96
50057;BME280;36875;49.468;11.200;2022-10-22T05:41:19;97755.34;;;19.68;53.93
50057;BME280;36875;49.468;11.200;2022-10-22T05:43:46;97755.81;;;19.70;54.24
50057;BME280;36875;49.468;11.200;2022-10-22T05:46:13;97767.06;;;19.68;54.32
50057;BME280;36875;49.468;11.200;2022-10-22T05:48:40;97754.59;;;19.53;54.10
50057;BME280;36875;49.468;11.200;2022-10-22T05:51:07;97769.28;;;19.66;53.95
50057;BME280;36875;49.468;11.200;2022-10-22T05:53:37;97762.38;;;19.60;54.18
50057;BME280;36875;49.468;11.200;2022-10-22T05:56:04;97772.03;;;19.66;53.88
50057;BME280;36875;49.468;11.200;2022-10-22T05:58:30;97773.97;;;19.65;53.91
50057;BME280;36875;49.468;11.200;2022-10-22T06:01:01;97768.00;;;19.63;54.00
50057;BME280;36875;49.468;11.200;2022-10-22T06:03:27;97765.59;;;19.62;54.24
50057;BME280;36875;49.468;11.200;2022-10-22T06:05:53;97790.94;;;19.62;54.01
50057;BME280;36875;49.468;11.200;2022-10-22T06:08:19;97782.56;;;19.59;54.34
50057;BME280;36875;49.468;11.200;2022-10-22T06:10:44;97775.16;;;19.51;54.07
50057;BME280;36875;49.468;11.200;2022-10-22T06:13:10;97790.47;;;19.60;54.23
50057;BME280;36875;49.468;11.200;2022-10-22T06:15:35;97789.97;;;19.58;54.20
50057;BME280;36875;49.468;11.200;2022-10-22T06:18:02;97795.13;;;19.60;54.29
50057;BME280;36875;49.468;11.200;2022-10-22T06:20:28;97800.09;;;19.58;54.10
50057;BME280;36875;49.468;11.200;2022-10-22T06:22:53;97804.41;;;19.59;53.94
50057;BME280;36875;49.468;11.200;2022-10-22T06:25:19;97800.41;;;19.56;53.84
50057;BME280;36875;49.468;11.200;2022-10-22T06:27:48;97812.75;;;19.54;54.30
50057;BME280;36875;49.468;11.200;2022-10-22T06:30:14;97830.13;;;19.58;54.38
50057;BME280;36875;49.468;11.200;2022-10-22T06:32:40;97830.22;;;19.53;54.19
50057;BME280;36875;49.468;11.200;2022-10-22T06:35:07;97844.38;;;19.55;54.21
50057;BME280;36875;49.468;11.200;2022-10-22T06:37:33;97848.84;;;19.51;54.45
50057;BME280;36875;49.468;11.200;2022-10-22T06:39:59;97857.22;;;19.54;54.12
50057;BME280;36875;49.468;11.200;2022-10-22T06:42:24;97855.59;;;19.53;54.59
50057;BME280;36875;49.468;11.200;2022-10-22T06:44:50;97847.31;;;19.44;54.31
50057;BME280;36875;49.468;11.200;2022-10-22T06:47:15;97862.19;;;19.52;54.14
50057;BME280;36875;49.468;11.200;2022-10-22T06:49:40;97863.09;;;19.48;54.66
50057;BME280;36875;49.468;11.200;2022-10-22T06:52:08;97873.53;;;19.45;54.49
50057;BME280;36875;49.468;11.200;2022-10-22T06:54:33;97873.03;;;19.43;54.57
50057;BME280;36875;49.468;11.200;2022-10-22T06:56:59;97865.13;;;19.42;54.20
50057;BME280;36875;49.468;11.200;2022-10-22T06:59:24;97865.75;;;19.39;54.81
50057;BME280;36875;49.468;11.200;2022-10-22T07:01:50;97868.81;;;19.37;54.47
50057;BME280;36875;49.468;11.200;2022-10-22T07:04:15;97875.88;;;19.38;54.59
50057;BME280;36875;49.468;11.200;2022-10-22T07:06:41;97867.78;;;19.33;55.10
50057;BME280;36875;49.468;11.200;2022-10-22T07:09:08;97877.59;;;19.34;54.84
50057;BME280;36875;49.468;11.200;2022-10-22T07:11:38;97881.22;;;19.30;55.10
50057;BME280;36875;49.468;11.200;2022-10-22T07:14:04;97886.50;;;19.26;55.03
50057;BME280;36875;49.468;11.200;2022-10-22T07:16:32;97898.94;;;19.32;55.26
50057;BME280;36875;49.468;11.200;2022-10-22T07:18:57;97889.16;;;19.17;55.27
50057;BME280;36875;49.468;11.200;2022-10-22T07:21:23;97898.44;;;19.30;55.70
50057;BME280;36875;49.468;11.200;2022-10-22T07:23:50;97905.19;;;19.33;55.36
50057;BME280;36875;49.468;11.200;2022-10-22T07:26:17;97897.94;;;19.28;55.17
50057;BME280;36875;49.468;11.200;2022-10-22T07:28:44;97902.56;;;19.27;55.49
50057;BME280;36875;49.468;11.200;2022-10-22T07:31:12;97914.59;;;19.26;55.63
50057;BME280;36875;49.468;11.200;2022-10-22T07:33:38;97890.47;;;19.20;55.63
50057;BME280;36875;49.468;11.200;2022-10-22T07:36:07;97906.47;;;19.35;55.62
50057;BME280;36875;49.468;11.200;2022-10-22T07:38:34;97907.31;;;19.36;55.49
50057;BME280;36875;49.468;11.200;2022-10-22T07:41:00;97917.19;;;19.45;55.69
50057;BME280;36875;49.468;11.200;2022-10-22T07:43:27;97922.84;;;19.49;55.73
50057;BME280;36875;49.468;11.200;2022-10-22T07:45:52;97919.91;;;19.45;55.44
50057;BME280;36875;49.468;11.200;2022-10-22T07:48:20;97921.53;;;19.47;55.34
50057;BME280;36875;49.468;11.200;2022-10-22T07:50:47;97929.00;;;19.55;55.43
50057;BME280;36875;49.468;11.200;2022-10-22T07:53:13;97933.84;;;19.58;55.27
50057;BME280;36875;49.468;11.200;2022-10-22T07:55:38;97934.03;;;19.61;55.48
50057;BME280;36875;49.468;11.200;2022-10-22T07:58:04;97930.81;;;19.59;55.21
50057;BME280;36875;49.468;11.200;2022-10-22T08:00:31;97934.84;;;19.62;55.36
50057;BME280;36875;49.468;11.200;2022-10-22T08:02:56;97935.03;;;19.65;55.64
50057;BME280;36875;49.468;11.200;2022-10-22T08:05:22;97935.25;;;19.55;55.34
50057;BME280;36875;49.468;11.200;2022-10-22T08:07:47;97922.66;;;19.32;55.45
50057;BME280;36875;49.468;11.200;2022-10-22T08:10:13;97952.47;;;19.42;55.94
50057;BME280;36875;49.468;11.200;2022-10-22T08:12:39;97957.81;;;19.47;55.72
50057;BME280;36875;49.468;11.200;2022-10-22T08:15:06;97964.28;;;19.51;55.74
50057;BME280;36875;49.468;11.200;2022-10-22T08:17:33;97952.06;;;19.35;55.68
50057;BME280;36875;49.468;11.200;2022-10-22T08:19:59;97975.25;;;19.74;55.00
50057;BME280;36875;49.468;11.200;2022-10-22T08:22:24;97975.94;;;19.93;54.91
50057;BME280;36875;49.468;11.200;2022-10-22T08:24:50;97972.50;;;20.10;54.63
50057;BME280;36875;49.468;11.200;2022-10-22T08:27:15;97977.16;;;20.55;53.55
50057;BME280;36875;49.468;11.200;2022-10-22T08:29:41;97975.63;;;20.63;53.34
50057;BME280;36875;49.468;11.200;2022-10-22T08:32:06;97967.44;;;21.03;52.15
50057;BME280;36875;49.468;11.200;2022-10-22T08:34:33;97975.66;;;21.03;52.50
50057;BME280;36875;49.468;11.200;2022-10-22T08:36:59;97978.28;;;21.25;51.85
50057;BME280;36875;49.468;11.200;2022-10-22T08:39:24;97981.06;;;21.43;51.27
50057;BME280;36875;49.468;11.200;2022-10-22T08:42:00;97971.56;;;21.40;51.41
50057;BME280;36875;49.468;11.200;2022-10-22T08:44:43;97979.34;;;21.55;51.10
50057;BME280;36875;49.468;11.200;2022-10-22T08:47:24;97976.13;;;21.80;50.44
50057;BME280;36875;49.468;11.200;2022-10-22T08:49:59;97975.97;;;21.85;50.35
50057;BME280;36875;49.468;11.200;2022-10-22T08:52:25;97977.59;;;21.68;50.64
50057;BME280;36875;49.468;11.200;2022-10-22T08:54:52;97982.56;;;21.66;50.98
50057;BME280;36875;49.468;11.200;2022-10-22T08:57:31;97977.91;;;21.75;50.58
50057;BME280;36875;49.468;11.200;2022-10-22T09:00:00;97986.13;;;21.75;50.71
50057;BME280;36875;49.468;11.200;2022-10-22T09:02:34;97986.63;;;21.78;50.63
50057;BME280;36875;49.468;11.200;2022-10-22T09:05:16;97988.25;;;21.87;50.18
50057;BME280;36875;49.468;11.200;2022-10-22T09:07:47;97981.94;;;21.87;50.51
50057;BME280;36875;49.468;11.200;2022-10-22T09:10:15;97998.88;;;21.98;50.41
50057;BME280;36875;49.468;11.200;2022-10-22T09:12:41;97996.13;;;21.89;50.75
50057;BME280;36875;49.468;11.200;2022-10-22T09:15:12;97996.78;;;22.03;50.54
50057;BME280;36875;49.468;11.200;2022-10-22T09:17:48;97994.69;;;21.83;51.13
50057;BME280;36875;49.468;11.200;2022-10-22T09:20:20;97988.72;;;21.98;50.61
50057;BME280;36875;49.468;11.200;2022-10-22T09:23:02;97988.91;;;21.93;50.89
50057;BME280;36875;49.468;11.200;2022-10-22T09:25:32;97993.06;;;21.90;50.83
50057;BME280;36875;49.468;11.200;2022-10-22T09:28:00;97989.84;;;21.97;50.54
50057;BME280;36875;49.468;11.200;2022-10-22T09:30:28;97991.97;;;22.00;50.66
50057;BME280;36875;49.468;11.200;2022-10-22T09:32:59;97994.34;;;22.10;50.33
50057;BME280;36875;49.468;11.200;2022-10-22T09:35:27;97992.91;;;22.04;50.58
50057;BME280;36875;49.468;11.200;2022-10-22T09:37:58;97980.81;;;22.05;50.39
50057;BME280;36875;49.468;11.200;2022-10-22T09:40:30;97990.97;;;22.05;50.48
50057;BME280;36875;49.468;11.200;2022-10-22T09:42:56;98003.09;;;22.04;50.56
50057;BME280;36875;49.468;11.200;2022-10-22T09:45:24;98002.75;;;21.88;51.01
50057;BME280;36875;49.468;11.200;2022-10-22T09:48:02;98000.00;;;21.88;50.95
50057;BME280;36875;49.468;11.200;2022-10-22T09:50:42;98002.09;;;21.82;51.29
50057;BME280;36875;49.468;11.200;2022-10-22T09:53:12;98003.53;;;21.88;51.34
50057;BME280;36875;49.468;11.200;2022-10-22T09:55:39;98012.91;;;21.87;51.64
50057;BME280;36875;49.468;11.200;2022-10-22T09:58:10;98014.69;;;22.01;51.25
50057;BME280;36875;49.468;11.200;2022-10-22T10:00:38;98006.63;;;21.95;51.35
50057;BME280;36875;49.468;11.200;2022-10-22T10:03:04;98003.38;;;21.85;51.66
50057;BME280;36875;49.468;11.200;2022-10-22T10:05:31;98003.38;;;21.85;51.88
50057;BME280;36875;49.468;11.200;2022-10-22T10:07:58;98003.06;;;21.86;51.80
50057;BME280;36875;49.468;11.200;2022-10-22T10:10:33;98002.75;;;21.88;51.81
50057;BME280;36875;49.468;11.200;2022-10-22T10:13:06;98002.91;;;22.00;51.68
50057;BME280;36875;49.468;11.200;2022-10-22T10:15:39;98012.44;;;22.11;51.38
50057;BME280;36875;49.468;11.200;2022-10-22T10:18:15;98009.38;;;22.04;51.65
50057;BME280;36875;49.468;11.200;2022-10-22T10:20:51;98013.53;;;22.10;51.51
50057;BME280;36875;49.468;11.200;2022-10-22T10:23:23;98007.41;;;21.96;51.86
50057;BME280;36875;49.468;11.200;2022-10-22T10:25:57;98016.59;;;22.18;51.53
50057;BME280;36875;49.468;11.200;2022-10-22T10:28:56;98016.94;;;21.99;51.82
50057;BME280;36875;49.468;11.200;2022-10-22T10:31:35;98020.00;;;21.97;51.88
50057;BME280;36875;49.468;11.200;2022-10-22T10:34:12;98019.38;;;22.00;51.59
50057;BME280;36875;49.468;11.200;2022-10-22T10:36:44;98020.16;;;21.92;51.96
50057;BME280;36875;49.468;11.200;2022-10-22T10:39:19;98017.72;;;21.90;51.90
50057;BME280;36875;49.468;11.200;2022-10-22T10:41:53;98019.66;;;21.90;51.80
50057;BME280;36875;49.468;11.200;2022-10-22T10:44:32;98016.28;;;21.93;51.84
50057;BME280;36875;49.468;11.200;2022-10-22T10:47:11;98016.59;;;22.09;51.75
50057;BME280;36875;49.468;11.200;2022-10-22T10:49:39;98007.44;;;22.13;51.52
50057;BME280;36875;49.468;11.200;2022-10-22T10:52:14;98013.88;;;22.18;51.45
50057;BME280;36875;49.468;11.200;2022-10-22T10:54:47;98011.16;;;22.26;51.04
50057;BME280;36875;49.468;11.200;2022-10-22T10:57:24;98000.47;;;22.16;51.35
50057;BME280;36875;49.468;11.200;2022-10-22T11:00:06;98010.50;;;22.29;51.07
50057;BME280;36875;49.468;11.200;2022-10-22T11:03:01;98012.13;;;22.39;50.66
50057;BME280;36875;49.468;11.200;2022-10-22T11:05:38;98007.59;;;22.35;50.49
50057;BME280;36875;49.468;11.200;2022-10-22T11:08:09;98009.84;;;22.41;50.58
50057;BME280;36875;49.468;11.200;2022-10-22T11:10:43;98019.66;;;22.42;50.47
50057;BME280;36875;49.468;11.200;2022-10-22T11:13:16;98014.38;;;22.28;50.98
50057;BME280;36875;49.468;11.200;2022-10-22T11:15:46;98018.59;;;22.26;50.90
50057;BME280;36875;49.468;11.200;2022-10-22T11:18:21;98021.63;;;22.16;51.25
50057;BME280;36875;49.468;11.200;2022-10-22T11:20:52;98017.28;;;22.06;51.44
50057;BME280;36875;49.468;11.200;2022-10-22T11:23:25;98017.25;;;22.14;51.41
50057;BME280;36875;49.468;11.200;2022-10-22T11:25:53;98016.78;;;22.04;51.59
50057;BME280;36875;49.468;11.200;2022-10-22T11:28:24;98009.19;;;21.92;51.67
50057;BME280;36875;49.468;11.200;2022-10-22T11:30:58;98021.78;;;21.93;51.92
50057;BME280;36875;49.468;11.200;2022-10-22T11:33:28;98008.41;;;22.00;51.72
50057;BME280;36875;49.468;11.200;2022-10-22T11:35:58;98000.50;;;21.99;51.30
50057;BME280;36875;49.468;11.200;2022-10-22T11:38:27;98013.22;;;22.03;51.52
50057;BME280;36875;49.468;11.200;2022-10-22T11:40:58;98010.63;;;21.98;51.90
50057;BME280;36875;49.468;11.200;2022-10-22T11:43:27;98000.66;;;22.02;51.48
50057;BME280;36875;49.468;11.200;2022-10-22T11:45:57;98004.69;;;22.05;51.60
50057;BME280;36875;49.468;11.200;2022-10-22T11:48:26;98008.69;;;22.16;51.21
50057;BME280;36875;49.468;11.200;2022-10-22T11:50:54;97997.41;;;22.09;51.18
50057;BME280;36875;49.468;11.200;2022-10-22T11:53:29;97997.75;;;22.16;51.04
50057;BME280;36875;49.468;11.200;2022-10-22T11:56:02;97992.59;;;21.97;51.34
50057;BME280;36875;49.468;11.200;2022-10-22T11:58:34;98003.06;;;21.95;51.50
50057;BME280;36875;49.468;11.200;2022-10-22T12:01:26;97986.28;;;21.79;51.73
50057;BME280;36875;49.468;11.200;2022-10-22T12:04:21;98004.03;;;21.99;51.46
50057;BME280;36875;49.468;11.200;2022-10-22T12:06:59;98007.59;;;21.91;51.67
50057;BME280;36875;49.468;11.200;2022-10-22T12:09:27;97976.94;;;21.63;51.81
50057;BME280;36875;49.468;11.200;2022-10-22T12:12:03;98013.53;;;21.84;52.13
50057;BME280;36875;49.468;11.200;2022-10-22T12:14:51;98011.28;;;21.95;51.89
50057;BME280;36875;49.468;11.200;2022-10-22T12:17:20;97956.00;;;21.67;51.67
50057;BME280;36875;49.468;11.200;2022-10-22T12:19:50;97950.84;;;21.65;51.75
50057;BME280;36875;49.468;11.200;2022-10-22T12:22:22;97999.03;;;22.01;51.66
50057;BME280;36875;49.468;11.200;2022-10-22T12:24:50;97986.47;;;21.91;51.76
50057;BME280;36875;49.468;11.200;2022-10-22T12:27:18;97986.78;;;21.90;51.45
50057;BME280;36875;49.468;11.200;2022-10-22T12:29:45;97975.66;;;21.78;51.69
50057;BME280;36875;49.468;11.200;2022-10-22T12:32:12;98000.66;;;21.93;51.69
50057;BME280;36875;49.468;11.200;2022-10-22T12:34:44;97992.09;;;21.86;51.45
50057;BME280;36875;49.468;11.200;2022-10-22T12:37:12;97989.19;;;21.83;51.25
50057;BME280;36875;49.468;11.200;2022-10-22T12:39:38;97995.50;;;21.92;50.95
50057;BME280;36875;49.468;11.200;2022-10-22T12:42:04;97956.66;;;21.64;50.91
50057;BME280;36875;49.468;11.200;2022-10-22T12:44:31;97993.06;;;21.90;50.48
50057;BME280;36875;49.468;11.200;2022-10-22T12:46:57;97989.06;;;21.88;50.76
50057;BME280;36875;49.468;11.200;2022-10-22T12:49:26;97985.66;;;21.82;50.95
50057;BME280;36875;49.468;11.200;2022-10-22T12:51:59;97994.03;;;21.77;50.92
50057;BME280;36875;49.468;11.200;2022-10-22T12:54:29;97993.53;;;21.66;51.14
50057;BME280;36875;49.468;11.200;2022-10-22T12:56:56;97961.88;;;21.43;50.85
50057;BME280;36875;49.468;11.200;2022-10-22T12:59:24;97992.22;;;21.55;51.21